createdAt,value
2022-08-12T00:00:35.507Z,2.08
2022-08-12T00:03:21.257Z,2.22
2022-08-12T00:08:55.366Z,2.50
2022-08-12T00:11:41.870Z,2.10
2022-08-12T00:14:27.146Z,2.22
2022-08-12T00:17:12.539Z,2.60
2022-08-12T00:19:57.816Z,2.72
2022-08-12T00:22:43.118Z,2.22
2022-08-12T00:25:51.202Z,2.30
2022-08-12T00:28:33.894Z,2.10
2022-08-12T00:31:19.931Z,2.88
2022-08-12T00:36:50.736Z,2.33
2022-08-12T00:39:36.411Z,2.60
2022-08-12T00:42:12.461Z,2.80
2022-08-12T00:44:42.641Z,2.30
2022-08-12T00:47:24.108Z,2.53
2022-08-12T00:49:54.000Z,2.75
2022-08-12T00:52:21.439Z,2.47
2022-08-12T00:54:57.507Z,3.22
2022-08-12T00:57:29.912Z,2.50
2022-08-12T01:00:00.033Z,2.85
2022-08-12T01:02:29.138Z,2.67
2022-08-12T01:05:20.511Z,2.90
2022-08-12T01:08:07.181Z,3.00
2022-08-12T01:10:55.167Z,2.92
2022-08-12T01:13:22.268Z,2.85
2022-08-12T01:15:54.397Z,2.63
2022-08-12T01:18:23.413Z,2.80
2022-08-12T01:21:03.565Z,2.92
2022-08-12T01:24:29.532Z,3.38
2022-08-12T01:26:53.613Z,3.15
2022-08-12T01:29:26.277Z,2.55
2022-08-12T01:31:59.524Z,3.00
2022-08-12T01:34:37.533Z,3.25
2022-08-12T01:37:07.575Z,2.28
2022-08-12T01:40:33.931Z,3.13
2022-08-12T01:42:48.060Z,2.85
2022-08-12T01:45:17.395Z,3.20
2022-08-12T01:48:09.819Z,3.38
2022-08-12T01:50:49.788Z,3.55
2022-08-12T01:55:47.433Z,2.80
2022-08-12T01:58:50.275Z,3.22
2022-08-12T02:01:20.427Z,2.85
2022-08-12T02:04:29.670Z,3.10
2022-08-12T02:07:22.653Z,4.28
2022-08-12T02:11:17.306Z,3.30
2022-08-12T02:14:00.179Z,3.83
2022-08-12T02:16:46.780Z,3.42
2022-08-12T02:19:43.127Z,3.75
2022-08-12T02:22:38.277Z,3.28
2022-08-12T02:25:17.075Z,3.40
2022-08-12T02:27:52.277Z,3.85
2022-08-12T02:30:42.145Z,3.65
2022-08-12T02:33:10.689Z,4.10
2022-08-12T02:35:39.669Z,3.75
2022-08-12T02:38:10.241Z,3.90
2022-08-12T02:40:39.961Z,3.63
2022-08-12T02:43:12.215Z,3.75
2022-08-12T02:45:53.518Z,3.85
2022-08-12T02:48:30.117Z,3.63
2022-08-12T02:51:03.792Z,4.22
2022-08-12T02:53:32.258Z,3.95
2022-08-12T02:56:02.763Z,3.80
2022-08-12T02:58:33.455Z,3.67
2022-08-12T03:01:01.737Z,4.00
2022-08-12T03:03:32.541Z,3.85
2022-08-12T03:06:01.608Z,3.88
2022-08-12T03:08:33.016Z,3.65
2022-08-12T03:11:10.172Z,3.53
2022-08-12T03:13:42.431Z,4.00
2022-08-12T03:16:09.430Z,4.18
2022-08-12T03:18:36.976Z,4.68
2022-08-12T03:21:03.969Z,3.20
2022-08-12T03:23:31.459Z,3.67
2022-08-12T03:26:01.363Z,4.53
2022-08-12T03:28:51.652Z,4.15
2022-08-12T03:31:21.970Z,4.35
2022-08-12T03:34:01.573Z,3.97
2022-08-12T03:36:31.547Z,4.03
2022-08-12T03:39:35.615Z,3.85
2022-08-12T03:42:26.438Z,4.30
2022-08-12T03:45:30.278Z,3.95
2022-08-12T03:48:23.601Z,3.80
2022-08-12T03:51:11.626Z,4.70
2022-08-12T03:53:57.680Z,4.60
2022-08-12T03:59:28.370Z,3.47
2022-08-12T04:01:58.776Z,4.00
2022-08-12T04:04:33.826Z,4.00
2022-08-12T04:07:09.109Z,4.32
2022-08-12T04:09:38.774Z,4.18
2022-08-12T04:12:26.163Z,3.78
2022-08-12T04:14:56.915Z,4.18
2022-08-12T04:17:26.817Z,4.25
2022-08-12T04:19:55.450Z,3.65
2022-08-12T04:22:25.650Z,3.72
2022-08-12T04:24:53.778Z,4.40
2022-08-12T04:27:20.492Z,4.22
2022-08-12T04:30:21.339Z,4.40
2022-08-12T04:32:42.203Z,4.07
2022-08-12T04:35:11.332Z,4.40
2022-08-12T04:37:57.925Z,4.03
2022-08-12T04:40:28.601Z,4.38
2022-08-12T04:42:56.014Z,4.25
2022-08-12T04:45:22.820Z,4.20
2022-08-12T04:47:49.751Z,4.60
2022-08-12T04:50:34.687Z,4.00
2022-08-12T04:53:09.346Z,4.25
2022-08-12T04:55:38.999Z,4.32
2022-08-12T04:58:07.305Z,4.32
2022-08-12T05:00:34.596Z,4.18
2022-08-12T05:03:01.388Z,4.63
2022-08-12T05:05:32.530Z,3.95
2022-08-12T05:08:01.824Z,4.57
2022-08-12T05:10:33.593Z,4.85
2022-08-12T05:13:07.148Z,4.47
2022-08-12T05:15:34.802Z,4.72
2022-08-12T05:18:19.165Z,4.05
2022-08-12T05:20:46.474Z,4.57
2022-08-12T05:23:19.296Z,4.50
2022-08-12T05:25:48.138Z,4.03
2022-08-12T05:28:16.043Z,4.60
2022-08-12T05:30:44.753Z,4.32
2022-08-12T05:33:15.544Z,4.00
2022-08-12T05:35:44.661Z,4.80
2022-08-12T05:38:32.052Z,4.28
2022-08-12T05:41:00.102Z,4.55
2022-08-12T05:43:26.995Z,4.70
2022-08-12T05:45:53.634Z,4.72
2022-08-12T05:48:20.627Z,4.20
2022-08-12T05:50:48.242Z,4.32
2022-08-12T05:53:14.733Z,4.65
2022-08-12T05:55:42.234Z,5.10
2022-08-12T05:58:08.852Z,4.45
2022-08-12T06:00:37.055Z,5.07
2022-08-12T06:03:04.652Z,4.75
2022-08-12T06:05:52.547Z,4.47
2022-08-12T06:08:23.961Z,5.22
2022-08-12T06:10:50.707Z,4.07
2022-08-12T06:13:25.714Z,5.90
2022-08-12T06:16:07.188Z,4.38
2022-08-12T06:18:33.744Z,4.93
2022-08-12T06:21:01.502Z,4.80
2022-08-12T06:23:29.578Z,4.68
2022-08-12T06:25:56.690Z,4.55
2022-08-12T06:28:23.506Z,4.60
2022-08-12T06:31:14.920Z,4.40
2022-08-12T06:33:59.464Z,4.57
2022-08-12T06:36:25.175Z,3.80
2022-08-12T06:38:56.798Z,5.05
2022-08-12T06:42:02.092Z,4.82
2022-08-12T06:44:28.634Z,4.72
2022-08-12T06:46:56.878Z,4.30
2022-08-12T06:49:24.900Z,4.45
2022-08-12T06:51:56.325Z,5.05
2022-08-12T06:54:31.009Z,5.15
2022-08-12T06:57:04.159Z,4.88
2022-08-12T06:59:32.244Z,3.90
2022-08-12T07:01:58.989Z,4.53
2022-08-12T07:04:36.434Z,5.10
2022-08-12T07:07:06.938Z,4.82
2022-08-12T07:10:02.841Z,3.75
2022-08-12T07:12:21.930Z,3.70
2022-08-12T07:14:51.245Z,4.53
2022-08-12T07:17:17.798Z,4.55
2022-08-12T07:19:45.507Z,5.18
2022-08-12T07:22:14.075Z,4.63
2022-08-12T07:24:40.545Z,4.30
2022-08-12T07:27:07.024Z,4.40
2022-08-12T07:29:58.114Z,4.63
2022-08-12T07:32:24.321Z,3.88
2022-08-12T07:34:50.865Z,4.38
2022-08-12T07:37:17.805Z,4.47
2022-08-12T07:39:51.027Z,4.43
2022-08-12T07:42:27.888Z,4.43
2022-08-12T07:44:55.758Z,3.83
2022-08-12T07:47:22.951Z,4.75
2022-08-12T07:50:05.349Z,4.30
2022-08-12T07:52:34.667Z,3.70
2022-08-12T07:55:01.787Z,3.38
2022-08-12T07:57:28.223Z,4.05
2022-08-12T07:59:55.683Z,3.35
2022-08-12T08:02:26.608Z,3.75
2022-08-12T08:04:57.655Z,2.88
2022-08-12T08:07:30.840Z,3.92
2022-08-12T08:10:02.173Z,3.83
2022-08-12T08:12:50.662Z,4.30
2022-08-12T08:15:17.457Z,3.83
2022-08-12T08:20:59.634Z,3.83
2022-08-12T08:23:46.463Z,3.17
2022-08-12T08:26:16.980Z,3.75
2022-08-12T08:28:43.802Z,3.88
2022-08-12T08:31:10.417Z,3.40
2022-08-12T08:34:04.168Z,3.97
2022-08-12T08:36:24.295Z,3.78
2022-08-12T08:38:57.725Z,3.75
2022-08-12T08:42:13.923Z,4.00
2022-08-12T08:44:30.263Z,4.53
2022-08-12T08:46:56.900Z,4.43
2022-08-12T08:49:23.565Z,4.75
2022-08-12T08:51:50.081Z,4.13
2022-08-12T08:54:16.865Z,5.13
2022-08-12T08:56:44.165Z,5.43
2022-08-12T08:59:11.839Z,4.55
2022-08-12T09:01:39.528Z,5.75
2022-08-12T09:05:08.572Z,5.60
2022-08-12T09:06:58.557Z,5.72
2022-08-12T09:09:28.417Z,5.45
2022-08-12T09:12:32.134Z,5.43
2022-08-12T09:14:59.098Z,5.57
2022-08-12T09:17:25.998Z,5.40
2022-08-12T09:19:58.210Z,5.75
2022-08-12T09:25:25.542Z,5.93
2022-08-12T09:28:03.968Z,6.55
2022-08-12T09:30:41.623Z,6.93
2022-08-12T09:33:18.996Z,6.25
2022-08-12T09:35:46.829Z,7.60
2022-08-12T09:38:32.114Z,7.53
2022-08-12T09:42:07.991Z,8.05
2022-08-12T09:44:05.586Z,7.78
2022-08-12T09:46:34.685Z,7.93
2022-08-12T09:49:01.397Z,7.50
2022-08-12T09:51:38.136Z,7.00
2022-08-12T09:58:46.458Z,6.90
2022-08-12T10:00:13.901Z,7.78
2022-08-12T10:02:52.633Z,7.40
2022-08-12T10:05:22.700Z,8.35
2022-08-12T10:08:12.079Z,6.88
2022-08-12T10:10:58.518Z,7.70
2022-08-12T10:13:43.576Z,7.63
2022-08-12T10:16:39.095Z,8.38
2022-08-12T10:19:06.056Z,8.07
2022-08-12T10:21:44.959Z,7.13
2022-08-12T10:24:14.573Z,8.07
2022-08-12T10:27:14.431Z,9.27
2022-08-12T10:30:37.438Z,8.40
2022-08-12T10:32:44.782Z,8.20
2022-08-12T10:35:20.683Z,8.82
2022-08-12T10:38:34.384Z,9.27
2022-08-12T10:40:54.892Z,8.15
2022-08-12T10:43:54.150Z,8.48
2022-08-12T10:46:24.352Z,7.57
2022-08-12T10:49:06.214Z,7.60
2022-08-12T10:52:03.399Z,9.60
2022-08-12T10:54:36.280Z,8.50
2022-08-12T10:57:02.815Z,8.68
2022-08-12T10:59:58.284Z,9.50
2022-08-12T11:04:27.266Z,9.25
2022-08-12T11:07:02.070Z,9.27
2022-08-12T11:08:37.759Z,9.07
2022-08-12T11:10:39.029Z,8.80
2022-08-12T11:13:09.307Z,9.43
2022-08-12T11:16:19.087Z,9.57
2022-08-12T11:18:23.937Z,8.85
2022-08-12T11:20:52.081Z,9.32
2022-08-12T11:23:25.018Z,9.38
2022-08-12T11:26:06.000Z,8.95
2022-08-12T11:28:37.103Z,8.80
2022-08-12T11:31:06.806Z,8.73
2022-08-12T11:34:05.010Z,8.52
2022-08-12T11:36:23.049Z,7.00
2022-08-12T11:38:51.335Z,8.00
2022-08-12T11:41:31.565Z,7.55
2022-08-12T11:44:27.554Z,7.38
2022-08-12T11:46:51.191Z,6.95
2022-08-12T11:49:31.647Z,6.70
2022-08-12T11:52:00.464Z,6.93
2022-08-12T11:54:29.906Z,6.47
2022-08-12T11:57:00.250Z,6.13
2022-08-12T12:02:20.227Z,4.70
2022-08-12T12:04:52.674Z,4.85
2022-08-12T12:07:22.618Z,5.97
2022-08-12T12:09:53.439Z,6.13
2022-08-12T12:12:22.311Z,5.38
2022-08-12T12:14:54.726Z,4.68
2022-08-12T12:17:25.427Z,4.47
2022-08-12T12:19:53.377Z,3.92
2022-08-12T12:22:23.113Z,4.03
2022-08-12T12:25:13.590Z,3.22
2022-08-12T12:28:04.631Z,3.30
2022-08-12T12:30:37.279Z,3.65
2022-08-12T12:33:05.576Z,2.83
2022-08-12T12:36:19.858Z,3.25
2022-08-12T12:38:25.225Z,2.90
2022-08-12T12:40:53.069Z,3.58
2022-08-12T12:43:28.764Z,3.42
2022-08-12T12:46:07.437Z,2.80
2022-08-12T12:48:35.617Z,3.00
2022-08-12T12:51:48.313Z,3.60
2022-08-12T12:54:08.200Z,3.45
2022-08-12T12:56:42.296Z,3.70
2022-08-12T12:59:56.723Z,3.10
2022-08-12T13:01:56.206Z,3.20
2022-08-12T13:04:24.580Z,2.88
2022-08-12T13:06:52.035Z,2.72
2022-08-12T13:11:53.037Z,3.10
2022-08-12T13:14:28.694Z,2.30
2022-08-12T13:16:57.736Z,2.85
2022-08-12T13:19:37.815Z,2.85
2022-08-12T13:22:19.350Z,2.42
2022-08-12T13:24:51.822Z,2.90
2022-08-12T13:27:21.016Z,2.45
2022-08-12T13:29:47.453Z,2.40
2022-08-12T13:32:28.094Z,3.38
2022-08-12T13:35:04.313Z,2.70
2022-08-12T13:37:54.904Z,2.53
2022-08-12T13:40:29.946Z,2.70
2022-08-12T13:43:01.653Z,2.45
2022-08-12T13:45:30.193Z,2.40
2022-08-12T13:48:03.190Z,2.58
2022-08-12T13:50:38.046Z,2.35
2022-08-12T13:53:23.726Z,2.15
2022-08-12T13:55:59.427Z,2.05
2022-08-12T13:58:28.826Z,2.22
2022-08-12T14:00:58.191Z,2.67
2022-08-12T14:03:28.201Z,2.10
2022-08-12T14:06:15.464Z,2.13
2022-08-12T14:08:43.032Z,2.30
2022-08-12T14:11:09.707Z,2.50
2022-08-12T14:14:03.230Z,2.20
2022-08-12T14:16:38.015Z,2.10
2022-08-12T14:19:22.237Z,2.33
2022-08-12T14:21:59.133Z,2.05
2022-08-12T14:24:27.360Z,2.42
2022-08-12T14:26:58.741Z,2.13
2022-08-12T14:29:55.722Z,2.17
2022-08-12T14:32:17.823Z,2.28
2022-08-12T14:34:46.841Z,2.25
2022-08-12T14:37:56.137Z,3.10
2022-08-12T14:40:00.502Z,2.72
2022-08-12T14:42:28.148Z,2.08
2022-08-12T14:44:59.934Z,2.30
2022-08-12T14:47:35.271Z,1.90
2022-08-12T14:50:58.470Z,1.98
2022-08-12T14:58:28.517Z,1.83
2022-08-12T15:01:21.359Z,2.35
2022-08-12T15:03:57.074Z,1.80
2022-08-12T15:06:43.878Z,2.15
2022-08-12T15:09:14.092Z,1.80
2022-08-12T15:11:54.984Z,2.17
2022-08-12T15:14:26.719Z,1.90
2022-08-12T15:16:56.593Z,2.40
2022-08-12T15:20:12.169Z,2.38
2022-08-12T15:22:37.407Z,1.73
2022-08-12T15:25:03.861Z,1.80
2022-08-12T15:28:04.066Z,1.95
2022-08-12T15:30:24.686Z,2.15
2022-08-12T15:32:53.628Z,1.85
2022-08-12T15:35:27.430Z,1.98
2022-08-12T15:38:10.266Z,2.10
2022-08-12T15:40:46.742Z,1.80
2022-08-12T15:43:51.170Z,2.03
2022-08-12T15:46:02.335Z,1.75
2022-08-12T15:48:32.794Z,1.80
2022-08-12T15:51:00.434Z,1.90
2022-08-12T15:53:46.547Z,1.90
2022-08-12T15:56:29.102Z,1.73
2022-08-12T15:58:59.051Z,1.77
2022-08-12T16:01:35.090Z,1.90
2022-08-12T16:04:02.851Z,1.60
2022-08-12T16:07:02.284Z,1.65
2022-08-12T16:09:56.379Z,1.73
2022-08-12T16:12:12.000Z,1.83
2022-08-12T16:14:39.119Z,1.75
2022-08-12T16:20:03.489Z,1.58
2022-08-12T16:22:28.891Z,1.73
2022-08-12T16:27:25.483Z,1.77
2022-08-12T16:29:57.914Z,1.92
2022-08-12T16:32:31.726Z,1.70
2022-08-12T16:35:00.627Z,1.55
2022-08-12T16:37:32.756Z,1.55
2022-08-12T16:40:15.350Z,1.67
2022-08-12T16:42:53.736Z,1.73
2022-08-12T16:46:04.009Z,1.75
2022-08-12T16:48:33.653Z,1.70
2022-08-12T16:51:09.537Z,1.85
2022-08-12T16:53:44.567Z,1.75
2022-08-12T16:56:15.325Z,1.85
2022-08-12T16:58:43.448Z,2.30
2022-08-12T17:01:14.546Z,1.50
2022-08-12T17:04:08.213Z,1.75
2022-08-12T17:06:35.592Z,1.60
2022-08-12T17:09:08.790Z,1.95
2022-08-12T17:11:44.401Z,2.10
2022-08-12T17:14:10.947Z,1.75
2022-08-12T17:19:09.279Z,1.83
2022-08-12T17:21:41.277Z,1.67
2022-08-12T17:24:30.525Z,2.15
2022-08-12T17:26:59.358Z,1.98
2022-08-12T17:30:00.404Z,2.25
2022-08-12T17:32:14.341Z,1.75
2022-08-12T17:35:00.413Z,1.58
2022-08-12T17:37:27.549Z,2.10
2022-08-12T17:40:12.313Z,1.70
2022-08-12T17:42:43.528Z,1.80
2022-08-12T17:45:18.148Z,1.75
2022-08-12T17:48:01.000Z,2.10
2022-08-12T17:50:28.709Z,2.13
2022-08-12T17:52:59.173Z,2.00
2022-08-12T17:55:43.242Z,2.28
2022-08-12T17:58:13.991Z,1.85
2022-08-12T18:00:45.954Z,2.20
2022-08-12T18:04:05.145Z,2.25
2022-08-12T18:06:08.478Z,2.20
2022-08-12T18:08:43.351Z,3.00
2022-08-12T18:12:06.271Z,2.25
2022-08-12T18:14:27.778Z,2.65
2022-08-12T18:16:55.294Z,2.13
2022-08-12T18:19:21.710Z,2.42
2022-08-12T18:22:02.174Z,2.40
2022-08-12T18:24:30.274Z,2.80
2022-08-12T18:29:27.128Z,3.00
2022-08-12T18:32:35.150Z,2.20
2022-08-12T18:34:57.736Z,2.60
2022-08-12T18:42:54.735Z,2.63
2022-08-12T18:45:31.415Z,2.50
2022-08-12T18:48:14.860Z,3.10
2022-08-12T18:50:49.950Z,3.05
2022-08-12T18:54:06.648Z,2.72
2022-08-12T18:56:06.592Z,2.55
2022-08-12T18:58:59.808Z,2.78
2022-08-12T19:04:14.357Z,2.83
2022-08-12T19:06:41.099Z,2.10
2022-08-12T19:09:15.081Z,2.60
2022-08-12T19:12:00.905Z,3.33
2022-08-12T19:17:03.569Z,2.50
2022-08-12T19:19:41.520Z,2.42
2022-08-12T19:22:08.265Z,2.80
2022-08-12T19:24:53.422Z,2.30
2022-08-12T19:27:21.369Z,2.75
2022-08-12T19:30:06.544Z,2.70
2022-08-12T19:32:35.535Z,2.60
2022-08-12T19:38:03.809Z,2.80
2022-08-12T19:40:34.912Z,3.45
2022-08-12T19:43:20.309Z,2.78
2022-08-12T19:45:56.654Z,2.60
2022-08-12T19:48:32.811Z,2.63
2022-08-12T19:51:08.658Z,2.78
2022-08-12T19:53:57.042Z,2.92
2022-08-12T19:56:22.585Z,2.72
2022-08-12T19:58:52.338Z,2.60
2022-08-12T20:01:21.479Z,2.65
2022-08-12T20:06:29.304Z,2.55
2022-08-12T20:08:58.025Z,2.65
2022-08-12T20:12:13.651Z,2.72
2022-08-12T20:14:18.088Z,3.50
2022-08-12T20:16:52.450Z,2.72
2022-08-12T20:19:52.447Z,2.42
2022-08-12T20:22:15.049Z,2.53
2022-08-12T20:24:51.168Z,2.80
2022-08-12T20:27:29.165Z,2.22
2022-08-12T20:30:11.475Z,2.70
2022-08-12T20:33:00.766Z,2.05
2022-08-12T20:35:38.978Z,2.10
2022-08-12T20:38:26.804Z,3.90
2022-08-12T20:40:54.662Z,2.47
2022-08-12T20:43:24.126Z,2.10
2022-08-12T20:45:57.186Z,2.47
2022-08-12T20:48:25.353Z,2.08
2022-08-12T20:50:55.484Z,3.03
2022-08-12T20:53:33.241Z,2.15
2022-08-12T20:56:30.819Z,2.72
2022-08-12T20:58:59.817Z,2.63
2022-08-12T21:01:36.618Z,2.72
2022-08-12T21:04:32.250Z,2.50
2022-08-12T21:07:04.656Z,2.13
2022-08-12T21:09:50.220Z,2.33
2022-08-12T21:12:30.912Z,2.38
2022-08-12T21:15:23.677Z,2.00
2022-08-12T21:18:10.632Z,2.60
2022-08-12T21:20:50.598Z,2.05
2022-08-12T21:23:19.065Z,2.80
2022-08-12T21:25:46.070Z,2.25
2022-08-12T21:28:18.897Z,2.55
2022-08-12T21:31:11.245Z,2.67
2022-08-12T21:34:06.351Z,2.78
2022-08-12T21:36:34.430Z,2.42
2022-08-12T21:39:20.623Z,2.80
2022-08-12T21:41:53.112Z,2.42
2022-08-12T21:45:47.574Z,2.60
2022-08-12T21:47:22.345Z,2.33
2022-08-12T21:50:03.899Z,2.38
2022-08-12T21:52:40.408Z,2.90
2022-08-12T21:55:17.845Z,2.70
2022-08-12T21:57:51.627Z,2.00
2022-08-12T22:00:23.731Z,2.80
2022-08-12T22:03:08.914Z,2.78
2022-08-12T22:05:54.081Z,2.83
2022-08-12T22:08:22.203Z,2.70
2022-08-12T22:10:51.134Z,2.65
2022-08-12T22:14:02.244Z,2.60
2022-08-12T22:16:06.808Z,2.60
2022-08-12T22:18:33.377Z,2.60
2022-08-12T22:21:00.044Z,2.55
2022-08-12T22:23:28.401Z,2.58
2022-08-12T22:26:29.463Z,2.90
2022-08-12T22:29:19.963Z,2.83
2022-08-12T22:31:48.117Z,3.28
2022-08-12T22:34:18.232Z,2.97
2022-08-12T22:36:45.563Z,2.92
2022-08-12T22:39:15.919Z,3.45
2022-08-12T22:42:01.905Z,3.25
2022-08-12T22:44:54.927Z,3.00
2022-08-12T22:47:54.268Z,3.35
2022-08-12T22:50:28.884Z,2.67
2022-08-12T22:53:15.261Z,2.88
2022-08-12T22:56:05.747Z,2.85
2022-08-12T22:58:34.035Z,2.78
2022-08-12T23:01:02.244Z,2.80
2022-08-12T23:03:48.116Z,3.03
2022-08-12T23:06:22.072Z,2.50
2022-08-12T23:08:49.777Z,2.97
2022-08-12T23:11:17.967Z,3.08
2022-08-12T23:14:00.709Z,2.55
2022-08-12T23:16:33.496Z,2.72
2022-08-12T23:19:10.482Z,2.90
2022-08-12T23:22:05.471Z,2.78
2022-08-12T23:24:55.806Z,2.92
2022-08-12T23:27:51.659Z,2.90
2022-08-12T23:30:31.571Z,3.45
2022-08-12T23:33:01.724Z,2.47
2022-08-12T23:35:53.728Z,3.10
2022-08-12T23:38:30.136Z,3.22
2022-08-12T23:41:01.199Z,2.40
2022-08-12T23:43:39.095Z,2.45
2022-08-12T23:46:08.716Z,2.03
2022-08-12T23:48:37.363Z,2.40
2022-08-12T23:51:22.040Z,2.10
2022-08-12T23:54:07.092Z,1.90
2022-08-12T23:56:35.377Z,2.38
2022-08-12T23:59:06.853Z,2.72
